Terminal Aerodrome Forecast
Issued by NWS Boston, MA

Home | Current Version | Previous Version | Text Only | Print | Product List | Glossary On
Versions: 1 2 3 4 5 6 7 8 9 10 11 12 13 14 15 16 17 18 19 20 21 22 23 24 25 26
000
FTUS41 KBOX 300536
TAFBOS
TAF
KBOS 300536Z 3006/3112 03006KT P6SM FEW005 OVC008
     FM301200 12003KT P6SM BKN015
     FM302000 13008KT P6SM BKN020
     FM302300 16008KT P6SM BKN250
     FM310100 17007KT 3SM BR BKN250
     FM310300 18006KT 4SM BR VCSH BKN010
     FM310600 18005KT P6SM VCSH BKN010=

USA.gov is the U.S. government's official web portal to all federal, state and local government web resources and services.